createdAt,value
2022-09-27T03:18:23.321Z,78.63
2022-09-27T03:21:18.500Z,71.45
2022-09-27T03:23:47.728Z,74.20
2022-09-27T03:26:15.855Z,79.75
2022-09-27T03:28:47.028Z,67.97
2022-09-27T03:31:17.989Z,73.65
2022-09-27T03:34:19.542Z,76.75
2022-09-27T03:37:15.016Z,79.63
2022-09-27T03:39:59.818Z,81.22
2022-09-27T03:42:49.653Z,80.00
2022-09-27T03:45:20.040Z,70.15
2022-09-27T03:48:03.790Z,73.15
2022-09-27T03:50:51.971Z,79.18
2022-09-27T03:53:28.330Z,73.35
2022-09-27T03:56:04.242Z,80.50
2022-09-27T03:58:37.877Z,83.15
2022-09-27T04:01:11.151Z,75.38
2022-09-27T04:03:45.881Z,73.45
2022-09-27T04:06:35.101Z,77.30
2022-09-27T04:09:08.910Z,73.72
2022-09-27T04:12:03.737Z,77.63
2022-09-27T04:14:51.814Z,80.32
2022-09-27T04:17:58.324Z,75.00
2022-09-27T04:20:39.913Z,76.95
2022-09-27T04:23:13.413Z,75.63
2022-09-27T04:25:59.158Z,75.32
2022-09-27T04:29:12.465Z,77.93
2022-09-27T04:32:02.517Z,83.43
2022-09-27T04:34:50.433Z,74.55
2022-09-27T04:37:24.167Z,73.85
2022-09-27T04:39:56.576Z,82.35
2022-09-27T04:42:41.691Z,85.60
2022-09-27T04:45:19.120Z,74.82
2022-09-27T04:48:00.604Z,83.28
2022-09-27T04:51:08.045Z,71.97
2022-09-27T04:53:44.809Z,79.25
2022-09-27T04:56:24.723Z,75.75
2022-09-27T04:59:10.812Z,73.30
2022-09-27T05:02:20.961Z,80.45
2022-09-27T05:05:08.201Z,84.10
2022-09-27T05:07:58.397Z,72.35
2022-09-27T05:10:52.620Z,66.85
2022-09-27T05:13:23.827Z,73.93
2022-09-27T05:15:57.554Z,73.22
2022-09-27T05:18:44.383Z,81.65
2022-09-27T05:21:32.758Z,68.90
2022-09-27T05:24:01.240Z,74.30
2022-09-27T05:26:29.461Z,82.03
2022-09-27T05:29:08.174Z,72.88
2022-09-27T05:31:55.746Z,70.40
2022-09-27T05:34:34.415Z,76.95
2022-09-27T05:37:19.091Z,72.85
2022-09-27T05:39:54.002Z,70.72
2022-09-27T05:42:24.811Z,72.55
2022-09-27T05:44:54.728Z,68.25
2022-09-27T05:47:27.263Z,64.15
2022-09-27T05:50:00.739Z,80.43
2022-09-27T05:52:45.823Z,68.18
2022-09-27T05:55:15.730Z,69.53
2022-09-27T05:57:45.604Z,84.20
2022-09-27T06:00:26.790Z,69.57
2022-09-27T06:03:09.557Z,61.72
2022-09-27T06:06:10.876Z,63.58
2022-09-27T06:09:01.186Z,61.28
2022-09-27T06:11:36.271Z,58.78
2022-09-27T06:14:16.739Z,52.10
2022-09-27T06:17:04.242Z,54.15
2022-09-27T06:19:41.088Z,52.17
2022-09-27T06:22:16.809Z,54.38
2022-09-27T06:25:21.427Z,49.22
2022-09-27T06:28:23.294Z,51.08
2022-09-27T06:31:02.439Z,47.60
2022-09-27T06:33:53.644Z,51.42
2022-09-27T06:36:41.316Z,50.38
2022-09-27T06:39:11.199Z,51.05
2022-09-27T06:42:08.224Z,48.97
2022-09-27T06:45:09.549Z,44.80
2022-09-27T06:47:41.124Z,42.63
2022-09-27T06:50:28.409Z,44.13
2022-09-27T06:53:04.842Z,45.30
2022-09-27T06:55:33.672Z,49.10
2022-09-27T06:58:20.578Z,45.20
2022-09-27T07:01:09.221Z,45.45
2022-09-27T07:04:13.423Z,47.97
2022-09-27T07:07:04.048Z,50.13
2022-09-27T07:09:44.977Z,49.42
2022-09-27T07:12:25.951Z,44.58
2022-09-27T07:15:04.667Z,46.33
2022-09-27T07:17:58.902Z,44.08
2022-09-27T07:20:46.306Z,45.33
2022-09-27T07:23:17.961Z,43.08
2022-09-27T07:25:52.227Z,42.03
2022-09-27T07:28:24.041Z,46.00
2022-09-27T07:31:04.695Z,57.40
2022-09-27T07:33:42.988Z,70.55
2022-09-27T07:36:18.486Z,37.25
2022-09-27T07:38:56.484Z,36.03
2022-09-27T07:41:28.944Z,37.10
2022-09-27T07:43:59.892Z,37.42
2022-09-27T07:46:35.607Z,42.15
2022-09-27T07:49:39.284Z,40.78
2022-09-27T07:52:40.492Z,38.67
2022-09-27T07:55:28.309Z,38.63
2022-09-27T07:58:21.901Z,37.75
2022-09-27T08:00:53.550Z,38.70
2022-09-27T08:03:26.503Z,42.30
2022-09-27T08:06:10.413Z,54.13
2022-09-27T08:08:41.125Z,37.42
2022-09-27T08:11:35.071Z,34.35
2022-09-27T08:14:15.012Z,34.85
2022-09-27T08:16:52.488Z,32.55
2022-09-27T08:19:34.403Z,27.33
2022-09-27T08:22:35.338Z,31.77
2022-09-27T08:25:07.494Z,25.23
2022-09-27T08:28:12.965Z,25.60
2022-09-27T08:31:01.115Z,23.98
2022-09-27T08:33:42.787Z,25.67
2022-09-27T08:36:25.697Z,29.05
2022-09-27T08:39:00.935Z,27.98
2022-09-27T08:42:07.617Z,26.08
2022-09-27T08:45:04.530Z,25.98
2022-09-27T08:47:42.057Z,20.50
2022-09-27T08:50:45.632Z,23.67
2022-09-27T08:53:36.994Z,21.45
2022-09-27T08:56:10.259Z,20.63
2022-09-27T08:58:49.856Z,20.48
2022-09-27T09:01:30.020Z,26.30
2022-09-27T09:04:13.237Z,20.80
2022-09-27T09:06:53.071Z,19.90
2022-09-27T09:09:34.973Z,24.55
2022-09-27T09:12:43.282Z,20.50
2022-09-27T09:15:27.608Z,19.73
2022-09-27T09:18:27.777Z,17.83
2022-09-27T09:21:42.413Z,19.23
2022-09-27T09:24:26.509Z,19.10
2022-09-27T09:27:03.213Z,19.73
2022-09-27T09:29:47.677Z,18.80
2022-09-27T09:32:28.381Z,19.20
2022-09-27T09:35:02.290Z,20.52
2022-09-27T09:37:45.033Z,18.52
2022-09-27T09:40:22.173Z,18.02
2022-09-27T09:42:59.824Z,16.65
2022-09-27T09:45:33.332Z,17.48
2022-09-27T09:48:17.209Z,16.20
2022-09-27T09:50:49.696Z,13.90
2022-09-27T09:53:25.455Z,16.63
2022-09-27T09:56:01.800Z,12.40
2022-09-27T09:58:38.224Z,14.43
2022-09-27T10:01:20.005Z,20.52
2022-09-27T10:03:51.416Z,15.43
2022-09-27T10:06:24.131Z,12.13
2022-09-27T10:09:15.056Z,14.30
2022-09-27T10:11:51.539Z,20.92
2022-09-27T10:14:36.621Z,15.70
2022-09-27T10:17:22.217Z,13.50
2022-09-27T10:19:54.587Z,13.43
2022-09-27T10:22:32.434Z,10.82
2022-09-27T10:25:11.175Z,10.32
2022-09-27T10:28:15.995Z,10.40
2022-09-27T10:30:46.228Z,13.20
2022-09-27T10:33:33.796Z,8.93
2022-09-27T10:36:27.725Z,8.02
2022-09-27T10:39:33.050Z,10.75
2022-09-27T10:42:20.914Z,11.25
2022-09-27T10:44:51.640Z,9.00
2022-09-27T10:51:30.986Z,6.75
2022-09-27T10:54:20.563Z,8.07
2022-09-27T10:57:03.532Z,8.32
2022-09-27T10:59:47.002Z,9.32
2022-09-27T11:02:36.744Z,8.32
2022-09-27T11:05:40.682Z,10.75
2022-09-27T11:09:14.358Z,9.20
2022-09-27T11:11:45.459Z,7.63
2022-09-27T11:14:35.086Z,8.27
2022-09-27T11:17:47.635Z,8.07
2022-09-27T11:20:33.712Z,7.60
2022-09-27T11:23:39.647Z,7.03
2022-09-27T11:26:36.263Z,8.20
2022-09-27T11:29:19.977Z,25.00
2022-09-27T11:32:20.155Z,9.63
2022-09-27T11:35:09.454Z,7.88
2022-09-27T11:38:00.648Z,7.13
2022-09-27T11:40:44.902Z,6.15
2022-09-27T11:43:45.143Z,14.25
2022-09-27T11:46:41.145Z,7.70
2022-09-27T11:49:35.347Z,10.68
2022-09-27T11:52:30.844Z,7.93
2022-09-27T11:55:19.230Z,7.07
2022-09-27T11:57:59.697Z,8.45
2022-09-27T12:00:43.151Z,8.43
2022-09-27T12:03:59.453Z,7.60
2022-09-27T12:06:39.996Z,8.48
2022-09-27T12:09:22.396Z,8.77
2022-09-27T12:12:10.895Z,7.53
2022-09-27T12:14:51.696Z,7.90
2022-09-27T12:17:27.719Z,7.22
2022-09-27T12:20:05.717Z,11.82
2022-09-27T12:22:59.148Z,19.40
2022-09-27T12:25:50.932Z,9.40
2022-09-27T12:28:34.822Z,9.85
2022-09-27T12:31:28.570Z,9.55
2022-09-27T12:34:12.162Z,10.35
2022-09-27T12:36:48.477Z,10.02
2022-09-27T12:39:28.287Z,14.18
2022-09-27T12:42:19.521Z,12.48
2022-09-27T12:44:51.820Z,11.23
2022-09-27T12:47:38.268Z,10.38
2022-09-27T12:50:20.548Z,10.68
2022-09-27T12:53:00.295Z,10.85
2022-09-27T12:56:10.872Z,13.43
2022-09-27T12:58:59.974Z,11.20
2022-09-27T13:01:49.612Z,12.57
2022-09-27T13:04:47.933Z,8.95
2022-09-27T13:07:34.952Z,9.88
2022-09-27T13:10:26.739Z,9.30
2022-09-27T13:12:58.216Z,9.45
2022-09-27T13:15:30.592Z,10.20
2022-09-27T13:18:03.052Z,9.70
2022-09-27T13:20:49.234Z,12.65
2022-09-27T13:23:53.186Z,8.88
2022-09-27T13:26:51.870Z,7.93
2022-09-27T13:29:34.471Z,9.00
2022-09-27T13:32:24.429Z,10.93
2022-09-27T13:35:19.865Z,8.77
2022-09-27T13:38:00.885Z,8.48
2022-09-27T13:40:44.227Z,7.22
2022-09-27T13:43:54.456Z,9.60
2022-09-27T13:46:35.729Z,10.10
2022-09-27T13:49:16.149Z,8.10
2022-09-27T13:52:20.872Z,7.40
2022-09-27T13:54:59.575Z,11.77
2022-09-27T13:57:43.777Z,10.27
2022-09-27T14:00:19.930Z,7.88
2022-09-27T14:03:03.681Z,92.57
2022-09-27T14:05:37.748Z,30.20
2022-09-27T14:08:15.347Z,10.10
2022-09-27T14:10:45.138Z,9.27
2022-09-27T14:13:24.025Z,9.98
2022-09-27T14:16:04.999Z,7.95
2022-09-27T14:18:46.458Z,11.35
2022-09-27T14:21:25.348Z,7.93
2022-09-27T14:24:29.208Z,8.10
2022-09-27T14:27:13.454Z,7.75
2022-09-27T14:29:46.488Z,8.45
2022-09-27T14:32:21.620Z,18.60
2022-09-27T14:35:32.764Z,8.98
2022-09-27T14:38:15.834Z,8.48
2022-09-27T14:41:07.354Z,9.77
2022-09-27T14:43:37.147Z,8.80
2022-09-27T14:46:07.472Z,11.38
2022-09-27T14:48:37.860Z,7.45
2022-09-27T14:51:20.700Z,7.72
2022-09-27T14:53:53.681Z,10.50
2022-09-27T14:56:33.491Z,9.43
2022-09-27T14:59:11.467Z,12.52
2022-09-27T15:01:50.536Z,7.45
2022-09-27T15:04:23.437Z,9.55
2022-09-27T15:06:57.241Z,10.30
2022-09-27T15:09:32.350Z,8.60
2022-09-27T15:12:26.196Z,12.00
2022-09-27T15:15:03.943Z,8.27
2022-09-27T15:17:47.802Z,10.18
2022-09-27T15:20:35.756Z,11.10
2022-09-27T15:23:31.853Z,10.38
2022-09-27T15:26:11.443Z,10.50
2022-09-27T15:29:26.078Z,15.77
2022-09-27T15:32:03.018Z,9.48
2022-09-27T15:34:34.286Z,9.10
2022-09-27T15:37:30.368Z,14.25
2022-09-27T15:40:32.456Z,12.23
2022-09-27T15:43:30.288Z,9.40
2022-09-27T15:46:03.484Z,10.20
2022-09-27T15:48:45.839Z,12.25
2022-09-27T15:51:52.615Z,11.18
2022-09-27T15:54:35.977Z,10.90
2022-09-27T15:57:06.723Z,10.90
2022-09-27T15:59:39.582Z,8.73
2022-09-27T16:02:17.600Z,9.38
2022-09-27T16:04:47.555Z,11.40
2022-09-27T16:07:16.710Z,9.95
2022-09-27T16:09:47.073Z,9.75
2022-09-27T16:12:15.666Z,9.35
2022-09-27T16:14:45.227Z,8.00
2022-09-27T16:17:18.520Z,7.90
2022-09-27T16:19:47.291Z,8.32
2022-09-27T16:22:17.229Z,8.10
2022-09-27T16:24:46.348Z,7.55
2022-09-27T16:27:19.318Z,7.85
2022-09-27T16:29:49.632Z,8.68
2022-09-27T16:32:22.959Z,8.07
2022-09-27T16:34:54.659Z,8.68
2022-09-27T16:37:23.357Z,9.55
2022-09-27T16:39:51.912Z,10.43
2022-09-27T16:42:22.111Z,9.40
2022-09-27T16:44:52.927Z,9.57
2022-09-27T16:47:31.267Z,9.40
2022-09-27T16:50:17.484Z,9.32
2022-09-27T16:52:49.936Z,10.02
2022-09-27T16:55:21.171Z,9.23
2022-09-27T16:57:50.027Z,9.30
2022-09-27T17:00:19.670Z,9.60
2022-09-27T17:02:49.926Z,10.18
2022-09-27T17:05:20.269Z,9.25
2022-09-27T17:07:52.236Z,10.48
2022-09-27T17:10:20.884Z,9.25
2022-09-27T17:12:50.776Z,11.20
2022-09-27T17:15:25.580Z,10.73
2022-09-27T17:17:55.474Z,9.98
2022-09-27T17:20:23.976Z,8.30
2022-09-27T17:22:53.599Z,10.05
2022-09-27T17:25:27.054Z,9.35
2022-09-27T17:27:55.802Z,9.02
2022-09-27T17:30:24.394Z,10.85
2022-09-27T17:32:57.607Z,10.30
2022-09-27T17:35:31.453Z,9.75
2022-09-27T17:37:59.860Z,16.10
2022-09-27T17:40:28.389Z,11.75
2022-09-27T17:42:57.061Z,11.65
2022-09-27T17:45:25.579Z,12.38
2022-09-27T17:48:19.551Z,12.10
2022-09-27T17:50:47.958Z,12.27
2022-09-27T17:53:16.300Z,13.02
2022-09-27T17:55:45.091Z,14.10
2022-09-27T17:58:13.400Z,15.13
2022-09-27T18:00:42.033Z,15.57
2022-09-27T18:03:13.094Z,14.35
2022-09-27T18:05:41.695Z,13.68
2022-09-27T18:08:10.030Z,14.57
2022-09-27T18:10:38.843Z,14.90
2022-09-27T18:13:07.722Z,14.07
2022-09-27T18:15:37.574Z,14.13
2022-09-27T18:18:06.268Z,12.70
2022-09-27T18:20:37.491Z,13.75
2022-09-27T18:23:11.196Z,15.35
2022-09-27T18:25:42.286Z,15.95
2022-09-27T18:28:11.232Z,16.58
2022-09-27T18:30:42.187Z,15.40
2022-09-27T18:33:10.885Z,16.25
2022-09-27T18:35:42.726Z,13.95
2022-09-27T18:38:13.474Z,18.60
2022-09-27T18:40:57.067Z,15.77
2022-09-27T18:43:28.543Z,17.15
2022-09-27T18:46:04.372Z,17.45
2022-09-27T18:48:48.321Z,19.63
2022-09-27T18:51:24.493Z,19.42
2022-09-27T18:53:56.522Z,19.48
2022-09-27T18:56:27.579Z,25.65
2022-09-27T18:58:59.532Z,25.45
2022-09-27T19:01:30.844Z,24.00
2022-09-27T19:04:01.625Z,26.52
2022-09-27T19:06:35.305Z,24.60
2022-09-27T19:09:05.062Z,27.13
2022-09-27T19:11:38.410Z,24.75
2022-09-27T19:14:07.226Z,20.27
2022-09-27T19:16:38.179Z,20.65
2022-09-27T19:19:09.334Z,24.40
2022-09-27T19:21:39.222Z,18.63
2022-09-27T19:24:07.897Z,20.88
2022-09-27T19:26:38.071Z,17.75
2022-09-27T19:29:08.275Z,15.98
2022-09-27T19:31:38.641Z,19.52
2022-09-27T19:34:10.375Z,20.05
2022-09-27T19:36:40.854Z,16.90
2022-09-27T19:39:11.713Z,17.05
2022-09-27T19:41:40.464Z,16.95
2022-09-27T19:44:13.464Z,22.90
2022-09-27T19:46:42.254Z,22.17
2022-09-27T19:49:15.518Z,25.05
2022-09-27T19:51:48.146Z,24.02
2022-09-27T19:54:21.345Z,20.60
2022-09-27T19:56:50.727Z,17.25
2022-09-27T19:59:31.776Z,18.75
2022-09-27T20:02:05.320Z,22.15
2022-09-27T20:04:33.945Z,26.02
2022-09-27T20:07:03.681Z,29.42
2022-09-27T20:09:33.067Z,24.63
2022-09-27T20:12:03.267Z,25.50
2022-09-27T20:14:32.148Z,22.52
2022-09-27T20:17:00.623Z,22.92
2022-09-27T20:19:29.143Z,20.15
2022-09-27T20:21:57.799Z,18.38
2022-09-27T20:24:30.510Z,20.65
2022-09-27T20:27:04.636Z,20.27
2022-09-27T20:29:35.501Z,19.65
2022-09-27T20:32:26.847Z,21.88
2022-09-27T20:35:01.883Z,21.60
2022-09-27T20:37:32.949Z,20.13
2022-09-27T20:40:07.768Z,23.27
2022-09-27T20:45:44.598Z,20.80
2022-09-27T20:48:13.112Z,24.15
2022-09-27T20:50:44.125Z,20.77
2022-09-27T20:53:13.191Z,21.38
2022-09-27T20:55:51.806Z,19.60
2022-09-27T20:58:25.221Z,21.23
2022-09-27T21:00:55.191Z,22.38
2022-09-27T21:03:23.748Z,20.08
2022-09-27T21:05:55.213Z,24.00
2022-09-27T21:08:24.867Z,21.63
2022-09-27T21:10:54.016Z,20.67
2022-09-27T21:13:23.192Z,25.35
2022-09-27T21:15:51.450Z,21.90
2022-09-27T21:18:21.665Z,21.38
2022-09-27T21:21:00.980Z,23.52
2022-09-27T21:23:31.741Z,23.75
2022-09-27T21:26:06.968Z,23.30
2022-09-27T21:28:41.912Z,29.92
2022-09-27T21:31:12.242Z,25.77
2022-09-27T21:33:42.684Z,23.40
2022-09-27T21:36:14.405Z,22.25
2022-09-27T21:38:43.064Z,22.95
2022-09-27T21:41:16.250Z,25.23
2022-09-27T21:43:46.321Z,27.85
2022-09-27T21:46:18.435Z,26.58
2022-09-27T21:48:50.038Z,26.52
2022-09-27T21:51:20.052Z,26.63
2022-09-27T21:53:52.591Z,27.05
2022-09-27T21:56:21.758Z,25.52
2022-09-27T21:58:50.387Z,25.85
2022-09-27T22:01:21.932Z,24.98
2022-09-27T22:03:54.175Z,25.90
2022-09-27T22:06:24.687Z,32.72
2022-09-27T22:08:53.585Z,30.02
